Adams Landing, Vermont
Current Conditions -  °F | °C
As of 1:53 PM on Thursday 18 Dec 2014 (Local Time) from KPBG Reporting Station
Overcast Overcast  
Wind Chill: 25°   Ceiling: 2700
Heat Index: 33°   Visibility: 10mi
Dew Point: 25°   Wind: 10mph
Humidity: 72%   Direction: 300°WNW
Pressure: 29.87"   Gusts: NA
Location:  44.717°N, 73.3067°W
Report Text: KPBG 181853Z AUTO 30009KT 10SM OVC027 01/M04 A2987 RMK AO2 SLP116 T00061039
Loading
Personal Weather Stations






























Interactive Weather Map New forecast layout! Learn more

10-Day Weather Forecast

Advertisements
Track Severe Weather on mobile